.
WxDataArchive / Data Records for 2006-11-27
2006-11-26 November 2006 2006-11-28

Data Records for Monday, 27 November 2006

Time	Temp	Chill	HIndex	Humid	Dewpt	 Wind 	HiWind	WindDir	Rain 	Barom 
-----	----	-----	------	-----	-----	------	------	-------	-----	----- 
00:00	51.6	51.6	51.6	79	45.3	1	4	248	0.00	30.166 
00:05	51.4	51.4	51.4	79	45.1	0	1	248	0.00	30.166 
00:10	51.1	51.1	51.1	79	44.8	0	1	248	0.00	30.166 
00:15	50.8	50.8	50.8	80	44.9	0	1	248	0.00	30.171 
00:20	50.7	50.7	50.7	81	45.1	0	2	248	0.00	30.171 
00:25	50.7	50.7	50.7	81	45.1	0	1	248	0.00	30.171 
00:30	50.5	50.5	50.5	81	44.9	0	1	248	0.00	30.174 
00:35	50.4	50.4	50.4	81	44.8	0	1	248	0.00	30.174 
00:40	50.2	50.2	50.2	81	44.6	0	1	248	0.00	30.174 
00:45	50.2	50.2	50.2	82	44.9	0	1	248	0.00	30.165 
00:50	50.2	50.2	50.2	82	44.9	0	0	---	0.00	30.165 
00:55	50.1	50.1	50.1	82	44.8	0	1	248	0.00	30.165 
01:00	50.1	50.1	50.1	82	44.8	0	1	248	0.00	30.167 
01:05	49.9	49.9	49.9	83	44.9	0	1	248	0.00	30.167 
01:10	50.1	50.1	50.1	83	45.1	0	1	248	0.00	30.167 
01:15	50.4	50.4	50.4	82	45.1	0	1	248	0.00	30.162 
01:20	50.5	50.5	50.5	82	45.2	0	3	90	0.00	30.162 
01:25	50.7	50.7	50.7	81	45.1	0	2	68	0.00	30.162 
01:30	50.8	50.8	50.8	81	45.2	0	2	68	0.00	30.158 
01:35	51.0	51.0	51.0	81	45.4	0	2	45	0.00	30.158 
01:40	51.0	51.0	51.0	81	45.4	0	2	45	0.00	30.158 
01:45	51.0	51.0	51.0	81	45.4	0	2	45	0.00	30.150 
01:50	51.0	51.0	51.0	81	45.4	0	1	45	0.00	30.150 
01:55	51.0	51.0	51.0	81	45.4	1	3	270	0.00	30.150 
02:00	51.1	51.1	51.1	81	45.5	0	2	0	0.00	30.151 
02:05	51.1	51.1	51.1	80	45.1	0	4	0	0.00	30.151 
02:10	51.3	51.3	51.3	80	45.3	0	3	248	0.00	30.151 
02:15	51.1	51.1	51.1	80	45.1	0	2	225	0.00	30.148 
02:20	51.1	51.1	51.1	80	45.1	0	2	225	0.00	30.148 
02:25	51.1	51.1	51.1	80	45.1	0	2	225	0.00	30.148 
02:30	51.0	51.0	51.0	80	45.0	0	2	270	0.00	30.157 
02:35	51.1	51.1	51.1	80	45.1	1	4	248	0.00	30.157 
02:40	51.1	51.1	51.1	80	45.1	1	3	248	0.00	30.157 
02:45	51.0	51.0	51.0	80	45.0	0	2	248	0.00	30.155 
02:50	51.0	51.0	51.0	80	45.0	0	3	248	0.00	30.155 
02:55	51.0	51.0	51.0	80	45.0	1	2	248	0.00	30.155 
03:00	51.1	51.1	51.1	80	45.1	1	4	248	0.00	30.160 
03:05	51.3	51.3	51.3	79	45.0	1	3	248	0.00	30.160 
03:10	51.4	51.4	51.4	79	45.1	1	3	248	0.00	30.160 
03:15	51.4	51.4	51.4	79	45.1	0	1	248	0.00	30.159 
03:20	51.4	51.4	51.4	79	45.1	1	4	248	0.00	30.159 
03:25	51.4	51.4	51.4	79	45.1	1	3	248	0.00	30.159 
03:30	51.4	51.4	51.4	79	45.1	0	4	248	0.00	30.154 
03:35	51.4	51.4	51.4	79	45.1	0	2	248	0.00	30.154 
03:40	51.3	51.3	51.3	79	45.0	1	3	248	0.00	30.154 
03:45	51.3	51.3	51.3	79	45.0	0	2	248	0.00	30.155 
03:50	51.3	51.3	51.3	80	45.3	0	1	248	0.00	30.155 
03:55	51.1	51.1	51.1	79	44.8	0	1	248	0.00	30.155 
04:00	51.1	51.1	51.1	80	45.1	1	4	248	0.00	30.152 
04:05	51.1	51.1	51.1	80	45.1	1	3	248	0.00	30.152 
04:10	51.1	51.1	51.1	80	45.1	1	3	248	0.00	30.152 
04:15	51.1	51.1	51.1	80	45.1	1	4	248	0.00	30.149 
04:20	51.0	51.0	51.0	80	45.0	0	1	248	0.00	30.149 
04:25	50.7	50.7	50.7	80	44.8	0	2	248	0.00	30.149 
04:30	50.5	50.5	50.5	80	44.6	0	1	315	0.00	30.147 
04:35	50.4	50.4	50.4	81	44.8	0	2	315	0.00	30.147 
04:40	50.4	50.4	50.4	81	44.8	1	4	248	0.00	30.147 
04:45	50.4	50.4	50.4	80	44.5	1	4	248	0.00	30.150 
04:50	50.4	50.4	50.4	81	44.8	0	3	248	0.00	30.150 
04:55	50.2	50.2	50.2	81	44.6	0	2	248	0.00	30.150 
05:00	50.2	50.2	50.2	81	44.6	0	2	248	0.00	30.148 
05:05	50.1	50.1	50.1	81	44.5	0	1	248	0.00	30.148 
05:10	49.9	49.9	49.9	81	44.3	0	1	248	0.00	30.148 
05:15	49.9	49.9	49.9	81	44.3	0	2	248	0.00	30.150 
05:20	49.9	49.9	49.9	81	44.3	0	3	248	0.00	30.150 
05:25	49.9	49.9	49.9	81	44.3	0	2	248	0.00	30.150 
05:30	49.9	49.9	49.9	81	44.3	0	2	248	0.00	30.150 
05:35	49.9	49.9	49.9	81	44.3	0	4	248	0.00	30.150 
05:40	49.9	49.9	49.9	81	44.3	0	1	248	0.00	30.150 
05:45	49.8	49.8	49.8	81	44.2	0	3	248	0.00	30.154 
05:50	49.8	49.8	49.8	81	44.2	1	3	225	0.00	30.154 
05:55	49.8	49.8	49.8	81	44.2	1	3	225	0.00	30.154 
06:00	49.9	49.9	49.9	81	44.3	0	2	225	0.00	30.152 
06:05	49.8	49.8	49.8	81	44.2	1	4	68	0.00	30.152 
06:10	49.8	49.8	49.8	81	44.2	0	2	248	0.00	30.152 
06:15	49.6	49.6	49.6	81	44.0	0	2	248	0.00	30.153 
06:20	49.6	49.6	49.6	81	44.0	1	3	248	0.00	30.153 
06:25	49.6	49.6	49.6	81	44.0	0	2	248	0.00	30.153 
06:30	49.6	49.6	49.6	81	44.0	0	2	248	0.00	30.153 
06:35	49.6	49.6	49.6	81	44.0	1	4	248	0.00	30.153 
06:40	49.8	49.8	49.8	81	44.2	1	3	248	0.00	30.153 
06:45	49.8	49.8	49.8	81	44.2	1	4	225	0.00	30.158 
06:50	49.9	49.9	49.9	80	44.0	1	2	225	0.00	30.158 
06:55	49.9	49.9	49.9	80	44.0	1	2	225	0.00	30.158 
07:00	49.9	49.9	49.9	80	44.0	0	3	270	0.00	30.156 
07:05	49.8	49.8	49.8	80	43.9	1	3	270	0.00	30.156 
07:10	49.8	49.8	49.8	80	43.9	0	3	248	0.00	30.156 
07:15	49.8	49.8	49.8	80	43.9	0	3	248	0.00	30.167 
07:20	49.8	49.8	49.8	80	43.9	0	2	248	0.00	30.167 
07:25	49.6	49.6	49.6	80	43.7	0	2	248	0.00	30.167 
07:30	49.5	49.5	49.5	80	43.6	0	1	248	0.00	30.170 
07:35	49.5	49.5	49.5	81	43.9	0	3	248	0.00	30.170 
07:40	49.5	49.5	49.5	81	43.9	1	4	248	0.00	30.170 
07:45	49.8	49.8	49.8	80	43.9	1	6	225	0.00	30.172 
07:50	50.1	50.1	50.1	80	44.2	0	3	248	0.00	30.172 
07:55	50.2	50.2	50.2	79	43.9	1	3	248	0.00	30.172 
08:00	50.4	50.4	50.4	79	44.1	1	5	248	0.00	30.171 
08:05	50.5	50.5	50.5	79	44.2	1	3	248	0.00	30.171 
08:10	50.7	50.7	50.7	78	44.1	1	3	248	0.00	30.171 
08:15	50.8	50.8	50.8	77	43.9	1	4	248	0.00	30.178 
08:20	51.0	51.0	51.0	77	44.0	1	5	248	0.00	30.178 
08:25	51.1	51.1	51.1	78	44.5	0	2	248	0.00	30.178 
08:30	51.1	51.1	51.1	77	44.1	1	4	248	0.00	30.180 
08:35	51.3	51.3	51.3	77	44.3	0	2	248	0.00	30.180 
08:40	51.4	51.4	51.4	77	44.4	1	3	248	0.00	30.180 
08:45	51.6	51.6	51.6	77	44.6	1	3	248	0.00	30.183 
08:50	51.7	51.7	51.7	77	44.7	1	4	248	0.00	30.183 
08:55	51.7	51.7	51.7	77	44.7	1	3	270	0.00	30.183 
09:00	51.9	51.9	51.9	77	44.9	1	4	270	0.00	30.181 
09:05	52.0	52.0	52.0	76	44.7	1	3	0	0.00	30.181 
09:10	52.2	52.2	52.2	76	44.9	1	4	248	0.00	30.181 
09:15	52.2	52.2	52.2	76	44.9	1	4	248	0.00	30.186 
09:20	52.5	52.5	52.5	76	45.2	2	5	248	0.00	30.186 
09:25	52.8	52.8	52.8	75	45.1	1	5	248	0.00	30.186 
09:30	53.1	53.1	53.1	75	45.4	2	5	248	0.00	30.190 
09:35	53.2	53.2	53.2	75	45.5	2	4	248	0.00	30.190 
09:40	53.3	53.3	53.3	75	45.6	1	4	248	0.00	30.190 
09:45	53.5	53.5	53.5	75	45.8	1	4	248	0.00	30.185 
09:50	53.8	53.8	53.8	74	45.7	3	7	248	0.00	30.185 
09:55	53.9	53.9	53.9	74	45.8	3	5	248	0.00	30.185 
10:00	54.1	54.1	54.1	73	45.6	2	5	248	0.00	30.188 
10:05	54.2	54.2	54.2	73	45.7	2	5	248	0.00	30.188 
10:10	54.2	54.2	54.2	73	45.7	2	5	248	0.00	30.188 
10:15	54.4	54.4	54.4	73	45.9	2	4	248	0.00	30.184 
10:20	54.5	54.5	54.5	73	46.0	2	5	248	0.00	30.184 
10:25	54.7	54.7	54.7	73	46.2	2	6	248	0.00	30.184 
10:30	55.0	55.0	55.0	73	46.5	2	5	248	0.00	30.185 
10:35	55.0	55.0	55.0	73	46.5	2	5	248	0.00	30.185 
10:40	55.1	55.1	55.1	73	46.6	2	5	248	0.00	30.185 
10:45	55.1	55.1	55.1	73	46.6	2	5	248	0.00	30.181 
10:50	55.1	55.1	55.1	73	46.6	2	5	248	0.00	30.181 
10:55	55.3	55.3	55.3	73	46.8	2	5	248	0.00	30.181 
11:00	55.4	55.4	55.4	73	46.9	2	6	248	0.00	30.180 
11:05	55.4	55.4	55.4	73	46.9	2	7	248	0.00	30.180 
11:10	55.6	55.6	55.6	73	47.1	2	6	248	0.00	30.180 
11:15	55.6	55.6	55.6	73	47.1	2	5	248	0.00	30.169 
11:20	55.7	55.7	55.7	73	47.2	3	11	248	0.00	30.169 
11:25	55.9	55.9	55.9	73	47.4	2	5	270	0.00	30.169 
11:30	56.0	56.0	56.0	73	47.5	3	9	248	0.00	30.165 
11:35	56.2	56.2	56.2	72	47.3	3	9	248	0.00	30.165 
11:40	56.2	56.2	56.2	73	47.7	3	7	248	0.00	30.165 
11:45	56.3	56.3	56.3	73	47.8	2	5	248	0.00	30.159 
11:50	56.5	56.5	56.5	73	47.9	2	7	248	0.00	30.159 
11:55	56.6	56.6	56.6	72	47.7	3	7	248	0.00	30.159 
12:00	56.7	56.7	56.7	72	47.8	3	7	248	0.00	30.153 
12:05	57.0	57.0	57.0	72	48.1	2	7	248	0.00	30.153 
12:10	57.0	57.0	57.0	72	48.1	2	5	248	0.00	30.153 
12:15	57.2	57.2	57.2	72	48.3	3	7	248	0.00	30.148 
12:20	57.3	57.3	57.3	72	48.3	2	5	248	0.00	30.148 
12:25	57.5	57.5	57.5	72	48.5	3	9	248	0.00	30.148 
12:30	57.6	57.6	57.6	72	48.6	3	7	248	0.00	30.145 
12:35	57.8	57.8	57.8	72	48.8	1	4	248	0.00	30.145 
12:40	58.0	58.0	58.0	72	49.0	2	4	248	0.00	30.145 
12:45	58.1	58.1	58.1	71	48.7	2	4	248	0.00	30.144 
12:50	58.4	58.4	58.4	71	49.0	2	4	248	0.00	30.144 
12:55	58.4	58.4	58.4	72	49.4	2	7	248	0.00	30.144 
13:00	58.4	58.4	58.4	71	49.0	3	7	248	0.00	30.138 
13:05	58.4	58.4	58.4	71	49.0	3	7	248	0.00	30.138 
13:10	58.4	58.4	58.4	71	49.0	3	6	248	0.00	30.138 
13:15	58.4	58.4	58.4	71	49.0	2	6	248	0.00	30.134 
13:20	58.6	58.6	58.6	71	49.2	3	6	248	0.00	30.134 
13:25	58.6	58.6	58.6	70	48.8	3	6	248	0.00	30.134 
13:30	58.6	58.6	58.6	70	48.8	3	7	248	0.00	30.130 
13:35	58.6	58.6	58.6	71	49.2	3	6	248	0.00	30.130 
13:40	58.7	58.7	58.7	70	48.9	2	6	248	0.00	30.130 
13:45	58.7	58.7	58.7	71	49.3	2	7	270	0.00	30.133 
13:50	58.9	58.9	58.9	71	49.5	2	6	248	0.00	30.133 
13:55	58.9	58.9	58.9	70	49.1	3	6	248	0.00	30.133 
14:00	59.0	59.0	59.0	71	49.6	1	3	248	0.00	30.129 
14:05	59.2	59.2	59.2	71	49.8	2	5	248	0.00	30.129 
14:10	59.3	59.3	59.3	70	49.5	2	5	248	0.00	30.129 
14:15	59.5	59.5	59.5	70	49.7	2	5	248	0.00	30.131 
14:20	59.8	59.8	59.8	71	50.4	1	4	248	0.00	30.131 
14:25	60.2	60.2	60.2	69	50.0	2	6	248	0.00	30.131 
14:30	60.4	60.4	60.4	69	50.2	3	8	248	0.00	30.130 
14:35	60.4	60.4	60.4	68	49.8	3	6	248	0.00	30.130 
14:40	60.4	60.4	60.4	69	50.2	2	5	248	0.00	30.130 
14:45	60.4	60.4	60.4	69	50.2	2	5	248	0.00	30.124 
14:50	60.2	60.2	60.2	69	50.0	2	6	248	0.00	30.124 
14:55	60.4	60.4	60.4	69	50.2	1	3	248	0.00	30.124 
15:00	60.4	60.4	60.4	69	50.2	1	3	248	0.00	30.124 
15:05	60.4	60.4	60.4	69	50.2	2	6	248	0.00	30.124 
15:10	60.5	60.5	60.5	69	50.3	1	4	248	0.00	30.124 
15:15	60.5	60.5	60.5	69	50.3	1	4	248	0.00	30.116 
15:20	60.5	60.5	60.5	69	50.3	1	3	248	0.00	30.116 
15:25	60.5	60.5	60.5	69	50.3	1	5	248	0.00	30.116 
15:30	60.5	60.5	60.5	69	50.3	3	5	248	0.00	30.116 
15:35	60.5	60.5	60.5	69	50.3	2	4	248	0.00	30.116 
15:40	60.5	60.5	60.5	69	50.3	1	4	248	0.00	30.116 
15:45	60.5	60.5	60.5	69	50.3	1	5	248	0.00	30.116 
15:50	60.5	60.5	60.5	69	50.3	2	6	248	0.00	30.116 
15:55	60.5	60.5	60.5	69	50.3	2	4	248	0.00	30.116 
16:00	60.5	60.5	60.5	69	50.3	1	6	248	0.00	30.122 
16:05	60.5	60.5	60.5	69	50.3	1	4	248	0.00	30.122 
16:10	60.5	60.5	60.5	69	50.3	1	2	248	0.00	30.122 
16:15	60.4	60.4	60.4	69	50.2	1	5	248	0.00	30.128 
16:20	60.4	60.4	60.4	69	50.2	1	4	248	0.00	30.128 
16:25	60.2	60.2	60.2	69	50.0	1	4	225	0.00	30.128 
16:30	60.1	60.1	60.1	70	50.3	0	3	248	0.00	30.128 
16:35	59.9	59.9	59.9	70	50.1	0	2	248	0.00	30.128 
16:40	59.8	59.8	59.8	70	50.0	1	4	248	0.00	30.128 
16:45	59.8	59.8	59.8	70	50.0	0	3	248	0.00	30.126 
16:50	59.6	59.6	59.6	71	50.2	0	1	248	0.00	30.126 
16:55	59.2	59.2	59.2	71	49.8	0	2	248	0.00	30.126 
17:00	59.0	59.0	59.0	72	50.0	0	2	248	0.00	30.130 
17:05	58.7	58.7	58.7	73	50.1	0	1	248	0.00	30.130 
17:10	58.4	58.4	58.4	73	49.8	0	0	---	0.00	30.130 
17:15	58.1	58.1	58.1	74	49.9	0	1	248	0.00	30.130 
17:20	58.0	58.0	58.0	74	49.8	0	2	248	0.00	30.130 
17:25	57.8	57.8	57.8	74	49.6	0	0	---	0.00	30.130 
17:30	57.5	57.5	57.5	75	49.6	0	2	225	0.00	30.128 
17:35	57.3	57.3	57.3	75	49.4	0	2	225	0.00	30.128 
17:40	57.2	57.2	57.2	75	49.3	0	1	225	0.00	30.128 
17:45	57.0	57.0	57.0	76	49.5	0	1	225	0.00	30.131 
17:50	56.7	56.7	56.7	76	49.2	0	0	---	0.00	30.131 
17:55	56.3	56.3	56.3	77	49.2	0	0	---	0.00	30.131 
18:00	55.9	55.9	55.9	77	48.8	0	0	---	0.00	30.134 
18:05	55.6	55.6	55.6	78	48.8	0	0	---	0.00	30.134 
18:10	55.1	55.1	55.1	79	48.7	0	0	---	0.00	30.134 
18:15	54.8	54.8	54.8	80	48.7	0	0	---	0.00	30.136 
18:20	54.5	54.5	54.5	81	48.8	0	0	---	0.00	30.136 
18:25	54.2	54.2	54.2	81	48.5	0	0	---	0.00	30.136 
18:30	53.9	53.9	53.9	81	48.2	0	1	225	0.00	30.143 
18:35	53.8	53.8	53.8	82	48.4	0	1	225	0.00	30.143 
18:40	53.5	53.5	53.5	82	48.1	0	0	---	0.00	30.143 
18:45	53.3	53.3	53.3	83	48.3	0	0	---	0.00	30.149 
18:50	53.2	53.2	53.2	84	48.5	0	1	225	0.00	30.149 
18:55	53.2	53.2	53.2	84	48.5	0	1	225	0.00	30.149 
19:00	53.2	53.2	53.2	83	48.2	0	0	---	0.00	30.138 
19:05	53.3	53.3	53.3	83	48.3	0	0	---	0.00	30.138 
19:10	53.3	53.3	53.3	83	48.3	0	1	225	0.00	30.138 
19:15	53.5	53.5	53.5	82	48.1	0	1	225	0.00	30.145 
19:20	53.5	53.5	53.5	82	48.1	0	1	225	0.00	30.145 
19:25	53.6	53.6	53.6	81	47.9	0	0	---	0.00	30.145 
19:30	53.8	53.8	53.8	81	48.1	0	1	225	0.00	30.146 
19:35	53.6	53.6	53.6	81	47.9	0	0	---	0.00	30.146 
19:40	53.5	53.5	53.5	81	47.8	0	0	---	0.00	30.146 
19:45	53.3	53.3	53.3	81	47.6	0	0	---	0.00	30.150 
19:50	53.3	53.3	53.3	81	47.6	0	1	225	0.00	30.150 
19:55	53.6	53.6	53.6	80	47.6	0	2	225	0.00	30.150 
20:00	53.9	53.9	53.9	79	47.5	0	2	225	0.00	30.140 
20:05	54.1	54.1	54.1	79	47.7	0	1	225	0.00	30.140 
20:10	54.1	54.1	54.1	79	47.7	0	1	225	0.00	30.140 
20:15	53.9	53.9	53.9	79	47.5	0	1	225	0.00	30.146 
20:20	53.8	53.8	53.8	79	47.4	0	0	---	0.00	30.146 
20:25	53.5	53.5	53.5	79	47.1	0	0	---	0.00	30.146 
20:30	53.2	53.2	53.2	80	47.2	0	0	---	0.00	30.148 
20:35	53.1	53.1	53.1	80	47.1	0	0	---	0.00	30.148 
20:40	52.8	52.8	52.8	81	47.1	0	0	---	0.00	30.148 
20:45	52.5	52.5	52.5	81	46.8	0	0	---	0.00	30.145 
20:50	52.2	52.2	52.2	81	46.5	0	0	---	0.00	30.145 
20:55	52.0	52.0	52.0	82	46.7	0	0	---	0.00	30.145 
21:00	51.9	51.9	51.9	82	46.6	0	0	---	0.00	30.149 
21:05	51.6	51.6	51.6	82	46.3	0	0	---	0.00	30.149 
21:10	51.6	51.6	51.6	83	46.6	0	1	225	0.00	30.149 
21:15	52.0	52.0	52.0	81	46.4	0	2	158	0.00	30.135 
21:20	52.3	52.3	52.3	81	46.6	0	1	158	0.00	30.135 
21:25	52.3	52.3	52.3	80	46.3	0	1	158	0.00	30.135 
21:30	52.3	52.3	52.3	80	46.3	0	0	---	0.00	30.136 
21:35	52.2	52.2	52.2	80	46.2	0	0	---	0.00	30.136 
21:40	52.0	52.0	52.0	80	46.0	0	0	---	0.00	30.136 
21:45	51.7	51.7	51.7	81	46.1	0	0	---	0.00	30.138 
21:50	51.6	51.6	51.6	81	46.0	0	0	---	0.00	30.138 
21:55	51.3	51.3	51.3	81	45.7	0	0	---	0.00	30.138 
22:00	51.0	51.0	51.0	82	45.7	0	0	---	0.00	30.138 
22:05	50.8	50.8	50.8	82	45.5	0	0	---	0.00	30.138 
22:10	50.5	50.5	50.5	83	45.5	0	0	---	0.00	30.138 
22:15	50.4	50.4	50.4	83	45.4	0	0	---	0.00	30.138 
22:20	50.1	50.1	50.1	84	45.5	0	0	---	0.00	30.138 
22:25	49.9	49.9	49.9	84	45.3	0	0	---	0.00	30.138 
22:30	49.9	49.9	49.9	84	45.3	0	1	158	0.00	30.135 
22:35	50.1	50.1	50.1	84	45.5	0	1	158	0.00	30.135 
22:40	50.4	50.4	50.4	82	45.1	0	1	158	0.00	30.135 
22:45	50.5	50.5	50.5	82	45.2	0	1	158	0.00	30.128 
22:50	50.7	50.7	50.7	82	45.4	0	0	---	0.00	30.128 
22:55	50.5	50.5	50.5	82	45.2	0	0	---	0.00	30.128 
23:00	50.2	50.2	50.2	82	44.9	0	0	---	0.00	30.129 
23:05	50.1	50.1	50.1	83	45.1	0	0	---	0.00	30.129 
23:10	49.9	49.9	49.9	83	44.9	0	1	135	0.00	30.129 
23:15	49.9	49.9	49.9	83	44.9	0	0	---	0.00	30.133 
23:20	49.9	49.9	49.9	83	44.9	0	1	135	0.00	30.133 
23:25	49.9	49.9	49.9	82	44.6	0	0	---	0.00	30.133 
23:30	49.9	49.9	49.9	82	44.6	0	0	---	0.00	30.126 
23:35	49.8	49.8	49.8	82	44.5	0	1	135	0.00	30.126 
23:40	49.6	49.6	49.6	83	44.7	0	1	135	0.00	30.126 
23:45	49.6	49.6	49.6	83	44.7	0	1	135	0.00	30.132 
23:50	49.8	49.8	49.8	82	44.5	0	0	---	0.00	30.132 
23:55	49.8	49.8	49.8	82	44.5	0	1	135	0.00	30.132 

CoCoRaHS
IN-AL-39
A2 Web Hosting
Creative Commons License
GoDaddy
Look for:

loaded 2017-12-11 14:26:59 • last modified 2010-11-18 10:43:29
Privacy PolicyDisclaimer
• wx.awcolley.com is powered by PmWiki v.2002016 •
• all content (unless otherwise noted) © 2017 A W Colley